createdAt,value
2017-11-03T00:00:37.939Z,7.10
2017-11-03T00:03:04.031Z,7.43
2017-11-03T00:05:30.365Z,8.17
2017-11-03T00:07:56.412Z,7.93
2017-11-03T00:10:22.504Z,6.40
2017-11-03T00:12:48.732Z,6.37
2017-11-03T00:15:14.906Z,8.80
2017-11-03T00:17:40.952Z,6.47
2017-11-03T00:20:06.963Z,6.47
2017-11-03T00:22:33.118Z,8.20
2017-11-03T00:24:59.292Z,7.73
2017-11-03T00:27:25.511Z,6.23
2017-11-03T00:29:51.606Z,8.00
2017-11-03T00:32:17.801Z,5.90
2017-11-03T00:34:43.796Z,6.10
2017-11-03T00:37:10.015Z,5.90
2017-11-03T00:39:36.185Z,8.97
2017-11-03T00:42:02.232Z,5.10
2017-11-03T00:44:28.259Z,7.27
2017-11-03T00:46:54.373Z,6.57
2017-11-03T00:49:20.539Z,7.17
2017-11-03T00:51:47.234Z,6.40
2017-11-03T00:54:13.268Z,9.80
2017-11-03T00:56:39.456Z,5.87
2017-11-03T00:59:05.592Z,5.73
2017-11-03T01:01:31.720Z,5.40
2017-11-03T01:03:57.838Z,4.77
2017-11-03T01:06:23.933Z,4.50
2017-11-03T01:08:50.047Z,5.73
2017-11-03T01:11:16.793Z,4.73
2017-11-03T01:13:42.944Z,5.10
2017-11-03T01:16:09.120Z,4.67
2017-11-03T01:18:35.154Z,5.90
2017-11-03T01:21:01.395Z,5.97
2017-11-03T01:23:27.607Z,5.23
2017-11-03T01:25:53.762Z,6.33
2017-11-03T01:28:20.223Z,6.17
2017-11-03T01:30:46.414Z,6.20
2017-11-03T01:33:12.533Z,6.17
2017-11-03T01:35:38.672Z,5.47
2017-11-03T01:38:04.875Z,8.20
2017-11-03T01:40:30.885Z,5.93
2017-11-03T01:42:57.078Z,9.60
2017-11-03T01:45:23.277Z,7.33
2017-11-03T01:47:49.394Z,6.17
2017-11-03T01:50:15.592Z,5.77
2017-11-03T01:52:41.747Z,7.20
2017-11-03T01:55:07.898Z,9.80
2017-11-03T01:57:33.986Z,6.83
2017-11-03T02:00:00.033Z,7.47
2017-11-03T02:02:26.185Z,6.07
2017-11-03T02:04:52.426Z,5.90
2017-11-03T02:07:18.611Z,4.33
2017-11-03T02:09:44.682Z,4.83
2017-11-03T02:12:10.828Z,5.30
2017-11-03T02:14:36.990Z,5.57
2017-11-03T02:17:03.096Z,6.07
2017-11-03T02:19:29.250Z,7.00
2017-11-03T02:21:55.480Z,6.60
2017-11-03T02:24:21.670Z,7.70
2017-11-03T02:26:47.774Z,5.50
2017-11-03T02:29:13.979Z,5.60
2017-11-03T02:31:40.608Z,6.70
2017-11-03T02:34:06.768Z,7.30
2017-11-03T02:36:32.788Z,6.70
2017-11-03T02:38:58.893Z,6.37
2017-11-03T02:41:25.101Z,10.83
2017-11-03T02:43:51.286Z,9.70
2017-11-03T02:46:17.434Z,8.30
2017-11-03T02:48:43.535Z,7.83
2017-11-03T02:51:09.616Z,7.13
2017-11-03T02:53:35.665Z,6.00
2017-11-03T02:56:01.743Z,8.90
2017-11-03T02:58:27.836Z,7.40
2017-11-03T03:00:53.938Z,7.83
2017-11-03T03:03:20.095Z,8.13
2017-11-03T03:05:46.309Z,7.57
2017-11-03T03:08:12.473Z,6.50
2017-11-03T03:10:38.594Z,6.00
2017-11-03T03:13:04.927Z,5.63
2017-11-03T03:15:31.067Z,6.80
2017-11-03T03:17:57.468Z,6.57
2017-11-03T03:20:23.926Z,4.60
2017-11-03T03:22:49.994Z,4.30
2017-11-03T03:25:16.305Z,5.03
2017-11-03T03:27:42.445Z,5.60
2017-11-03T03:30:08.612Z,5.67
2017-11-03T03:32:35.118Z,4.83
2017-11-03T03:35:01.348Z,4.43
2017-11-03T03:37:27.481Z,4.23
2017-11-03T03:39:53.558Z,5.20
2017-11-03T03:42:19.609Z,4.00
2017-11-03T03:44:45.754Z,5.90
2017-11-03T03:47:11.929Z,4.73
2017-11-03T03:49:38.105Z,5.67
2017-11-03T03:52:04.469Z,4.47
2017-11-03T03:54:30.622Z,6.33
2017-11-03T03:56:56.696Z,6.80
2017-11-03T03:59:22.786Z,7.60
2017-11-03T04:01:49.066Z,4.40
2017-11-03T04:04:15.295Z,5.20
2017-11-03T04:06:41.413Z,6.20
2017-11-03T04:09:07.509Z,7.70
2017-11-03T04:11:33.742Z,4.70
2017-11-03T04:13:59.777Z,4.90
2017-11-03T04:16:25.894Z,5.67
2017-11-03T04:18:51.983Z,5.73
2017-11-03T04:21:18.081Z,6.80
2017-11-03T04:23:44.253Z,5.53
2017-11-03T04:26:10.321Z,7.00
2017-11-03T04:28:36.399Z,6.20
2017-11-03T04:31:02.516Z,6.07
2017-11-03T04:33:28.684Z,5.40
2017-11-03T04:35:54.881Z,6.53
2017-11-03T04:38:21.261Z,6.47
2017-11-03T04:40:47.338Z,8.63
2017-11-03T04:43:13.387Z,5.77
2017-11-03T04:45:39.488Z,6.80
2017-11-03T04:48:05.534Z,7.70
2017-11-03T04:50:31.716Z,6.60
2017-11-03T04:52:58.599Z,9.30
2017-11-03T04:55:24.749Z,7.07
2017-11-03T04:57:50.816Z,7.13
2017-11-03T05:00:17.036Z,4.83
2017-11-03T05:02:43.093Z,5.00
2017-11-03T05:05:09.121Z,4.70
2017-11-03T05:07:35.289Z,4.00
2017-11-03T05:10:01.841Z,4.83
2017-11-03T05:12:27.930Z,3.73
2017-11-03T05:14:53.958Z,6.60
2017-11-03T05:17:19.974Z,4.47
2017-11-03T05:19:46.067Z,4.90
2017-11-03T05:22:12.358Z,3.53
2017-11-03T05:24:38.472Z,5.40
2017-11-03T05:27:04.491Z,7.30
2017-11-03T05:29:30.713Z,4.07
2017-11-03T05:31:56.846Z,4.33
2017-11-03T05:34:23.283Z,4.70
2017-11-03T05:36:49.559Z,4.03
2017-11-03T05:39:15.704Z,6.70
2017-11-03T05:41:41.993Z,3.43
2017-11-03T05:44:08.188Z,4.73
2017-11-03T05:46:34.522Z,4.70
2017-11-03T05:49:00.765Z,5.30
2017-11-03T05:51:27.021Z,4.80
2017-11-03T05:53:53.205Z,5.87
2017-11-03T05:56:19.440Z,4.27
2017-11-03T05:58:45.961Z,5.00
2017-11-03T06:01:12.211Z,4.53
2017-11-03T06:03:38.216Z,7.43
2017-11-03T06:06:04.450Z,3.87
2017-11-03T06:08:30.633Z,5.00
2017-11-03T06:10:56.777Z,6.13
2017-11-03T06:13:22.936Z,5.37
2017-11-03T06:15:49.160Z,5.27
2017-11-03T06:18:15.267Z,4.67
2017-11-03T06:20:41.433Z,5.70
2017-11-03T06:23:07.476Z,5.40
2017-11-03T06:25:33.742Z,6.70
2017-11-03T06:30:34.593Z,6.40
2017-11-03T06:33:08.196Z,6.80
2017-11-03T06:35:34.894Z,8.17
2017-11-03T06:38:01.149Z,8.87
2017-11-03T06:40:33.665Z,7.60
2017-11-03T06:43:00.736Z,7.43
2017-11-03T06:45:27.058Z,8.27
2017-11-03T06:47:54.893Z,6.90
2017-11-03T06:50:32.470Z,5.77
2017-11-03T06:52:58.922Z,4.50
2017-11-03T06:55:25.329Z,5.97
2017-11-03T06:57:51.514Z,12.77
2017-11-03T07:00:21.520Z,11.33
2017-11-03T07:02:47.660Z,7.97
2017-11-03T07:05:13.796Z,7.23
2017-11-03T07:07:44.190Z,9.67
2017-11-03T07:10:10.337Z,10.53
2017-11-03T07:12:36.741Z,9.37
2017-11-03T07:15:03.003Z,7.40
2017-11-03T07:17:29.316Z,9.00
2017-11-03T07:19:55.574Z,7.40
2017-11-03T07:22:26.165Z,8.97
2017-11-03T07:24:56.508Z,6.93
2017-11-03T07:27:23.851Z,10.13
2017-11-03T07:29:52.029Z,7.00
2017-11-03T07:32:18.866Z,8.07
2017-11-03T07:34:46.569Z,8.67
2017-11-03T07:37:12.679Z,6.57
2017-11-03T07:39:41.952Z,7.03
2017-11-03T07:42:09.460Z,7.27
2017-11-03T07:44:35.791Z,6.60
2017-11-03T07:47:05.510Z,7.17
2017-11-03T07:49:31.855Z,11.40
2017-11-03T07:51:58.404Z,7.20
2017-11-03T07:54:24.693Z,7.93
2017-11-03T07:56:51.069Z,7.10
2017-11-03T07:59:17.305Z,6.77
2017-11-03T08:01:43.469Z,6.57
2017-11-03T08:04:09.705Z,9.27
2017-11-03T08:06:39.109Z,6.10
2017-11-03T08:09:06.090Z,6.13
2017-11-03T08:11:32.407Z,7.27
2017-11-03T08:13:58.515Z,6.47
2017-11-03T08:16:30.334Z,5.90
2017-11-03T08:18:57.873Z,7.90
2017-11-03T08:21:27.449Z,7.63
2017-11-03T08:23:53.825Z,8.27
2017-11-03T08:26:20.927Z,9.70
2017-11-03T08:28:47.686Z,8.97
2017-11-03T08:31:19.796Z,10.10
2017-11-03T08:33:47.330Z,8.47
2017-11-03T08:36:13.981Z,9.50
2017-11-03T08:38:40.284Z,9.40
2017-11-03T08:41:07.319Z,7.50
2017-11-03T08:43:33.644Z,7.93
2017-11-03T08:46:01.856Z,10.07
2017-11-03T08:51:03.275Z,9.93
2017-11-03T08:53:30.098Z,7.47
2017-11-03T08:55:59.612Z,8.03
2017-11-03T08:58:28.883Z,9.67
2017-11-03T09:00:57.571Z,7.90
2017-11-03T09:03:31.987Z,7.83
2017-11-03T09:06:12.560Z,8.17
2017-11-03T09:08:42.032Z,9.20
2017-11-03T09:11:09.864Z,7.43
2017-11-03T09:13:36.349Z,7.80
2017-11-03T09:16:04.750Z,8.03
2017-11-03T09:18:33.521Z,8.03
2017-11-03T09:20:59.919Z,8.40
2017-11-03T09:23:26.052Z,7.73
2017-11-03T09:25:52.280Z,10.97
2017-11-03T09:28:18.645Z,8.80
2017-11-03T09:30:45.035Z,7.20
2017-11-03T09:33:12.652Z,7.53
2017-11-03T09:35:42.176Z,10.47
2017-11-03T09:38:08.576Z,7.73
2017-11-03T09:40:34.799Z,8.30
2017-11-03T09:43:03.121Z,8.90
2017-11-03T09:45:29.554Z,8.77
2017-11-03T09:47:57.059Z,9.33
2017-11-03T09:50:24.393Z,7.53
2017-11-03T09:52:51.313Z,7.73
2017-11-03T09:55:17.682Z,7.60
2017-11-03T09:57:44.774Z,9.67
2017-11-03T10:00:14.120Z,11.80
2017-11-03T10:02:43.315Z,9.30
2017-11-03T10:05:09.752Z,9.33
2017-11-03T10:07:36.251Z,8.10
2017-11-03T10:10:03.356Z,10.57
2017-11-03T10:12:29.949Z,10.07
2017-11-03T10:14:56.394Z,7.70
2017-11-03T10:17:29.074Z,9.40
2017-11-03T10:19:58.730Z,10.17
2017-11-03T10:22:25.138Z,9.67
2017-11-03T10:25:00.275Z,10.30
2017-11-03T10:27:26.447Z,8.80
2017-11-03T10:29:52.727Z,9.10
2017-11-03T10:34:51.501Z,8.57
2017-11-03T10:37:17.654Z,10.43
2017-11-03T10:39:43.843Z,10.30
2017-11-03T10:45:01.073Z,9.30
2017-11-03T10:50:10.129Z,9.60
2017-11-03T10:52:41.735Z,9.23
2017-11-03T10:55:09.159Z,9.13
2017-11-03T10:57:38.502Z,9.80
2017-11-03T11:00:14.111Z,9.33
2017-11-03T11:02:41.233Z,10.00
2017-11-03T11:05:11.041Z,8.43
2017-11-03T11:07:46.052Z,8.43
2017-11-03T11:10:13.439Z,10.60
2017-11-03T11:15:39.687Z,9.13
2017-11-03T11:18:08.080Z,11.33
2017-11-03T11:20:45.551Z,10.00
2017-11-03T11:23:17.524Z,9.90
2017-11-03T11:25:44.528Z,7.33
2017-11-03T11:28:12.110Z,8.57
2017-11-03T11:30:38.386Z,10.37
2017-11-03T11:33:07.773Z,8.83
2017-11-03T11:35:36.937Z,10.13
2017-11-03T11:38:06.414Z,13.07
2017-11-03T11:40:39.556Z,11.97
2017-11-03T11:43:06.570Z,8.43
2017-11-03T11:45:35.448Z,9.53
2017-11-03T11:48:03.676Z,9.97
2017-11-03T11:50:33.939Z,8.60
2017-11-03T11:53:00.540Z,8.47
2017-11-03T11:55:28.393Z,9.97
2017-11-03T11:57:57.165Z,8.33
2017-11-03T12:00:23.765Z,7.70
2017-11-03T12:02:56.296Z,14.00
2017-11-03T12:05:29.091Z,7.67
2017-11-03T12:07:58.630Z,8.97
2017-11-03T12:10:25.772Z,9.63
2017-11-03T12:12:52.145Z,14.30
2017-11-03T12:15:24.317Z,12.17
2017-11-03T12:17:56.724Z,9.27
2017-11-03T12:20:25.462Z,8.17
2017-11-03T12:23:00.383Z,7.40
2017-11-03T12:25:32.219Z,9.00
2017-11-03T12:28:03.860Z,8.80
2017-11-03T12:30:33.780Z,11.07
2017-11-03T12:33:03.218Z,7.47
2017-11-03T12:38:01.764Z,7.77
2017-11-03T12:40:28.632Z,7.10
2017-11-03T12:43:03.895Z,7.07
2017-11-03T12:45:33.199Z,6.43
2017-11-03T12:48:05.854Z,5.83
2017-11-03T12:50:34.577Z,6.23
2017-11-03T12:53:03.337Z,6.80
2017-11-03T12:55:34.316Z,6.20
2017-11-03T12:58:03.097Z,5.73
2017-11-03T13:00:29.637Z,7.80
2017-11-03T13:02:55.857Z,6.60
2017-11-03T13:05:28.533Z,5.97
2017-11-03T13:08:04.877Z,8.10
2017-11-03T13:10:34.874Z,6.17
2017-11-03T13:13:02.288Z,5.60
2017-11-03T13:15:31.746Z,5.87
2017-11-03T13:17:57.853Z,5.70
2017-11-03T13:20:32.872Z,5.93
2017-11-03T13:23:09.204Z,4.77
2017-11-03T13:25:35.854Z,5.67
2017-11-03T13:28:05.422Z,6.00
2017-11-03T13:30:35.119Z,5.00
2017-11-03T13:35:47.932Z,7.23
2017-11-03T13:38:14.199Z,4.17
2017-11-03T13:40:55.130Z,5.03
2017-11-03T13:43:22.820Z,6.70
2017-11-03T13:45:50.076Z,4.10
2017-11-03T13:48:19.447Z,6.40
2017-11-03T13:50:48.839Z,5.43
2017-11-03T13:53:15.306Z,6.13
2017-11-03T13:55:57.062Z,5.80
2017-11-03T14:01:17.902Z,7.07
2017-11-03T14:03:49.587Z,6.53
2017-11-03T14:06:19.747Z,5.87
2017-11-03T14:08:46.960Z,5.13
2017-11-03T14:11:13.302Z,6.10
2017-11-03T14:13:39.647Z,8.40
2017-11-03T14:16:19.506Z,7.77
2017-11-03T14:18:46.545Z,7.73
2017-11-03T14:21:18.475Z,7.23
2017-11-03T14:23:46.783Z,8.40
2017-11-03T14:26:21.532Z,7.70
2017-11-03T14:28:48.611Z,6.40
2017-11-03T14:31:27.001Z,7.23
2017-11-03T14:33:53.828Z,7.20
2017-11-03T14:36:20.648Z,8.17
2017-11-03T14:38:51.472Z,6.83
2017-11-03T14:41:18.548Z,7.77
2017-11-03T14:43:56.758Z,6.50
2017-11-03T14:46:23.301Z,7.50
2017-11-03T14:48:49.752Z,6.87
2017-11-03T14:51:15.951Z,6.90
2017-11-03T14:53:45.488Z,7.70
2017-11-03T14:56:15.786Z,7.97
2017-11-03T14:58:57.761Z,8.80
2017-11-03T15:07:20.944Z,5.60
2017-11-03T15:09:49.686Z,5.83
2017-11-03T15:12:27.216Z,6.20
2017-11-03T15:14:58.100Z,8.80
2017-11-03T15:17:25.118Z,5.83
2017-11-03T15:19:52.066Z,10.90
2017-11-03T15:22:18.803Z,6.13
2017-11-03T15:24:45.026Z,7.50
2017-11-03T15:27:11.341Z,6.27
2017-11-03T15:29:37.664Z,6.70
2017-11-03T15:32:04.007Z,6.43
2017-11-03T15:34:30.155Z,8.47
2017-11-03T15:36:56.366Z,6.97
2017-11-03T15:39:22.467Z,6.40
2017-11-03T15:41:48.588Z,8.10
2017-11-03T15:47:08.526Z,6.77
2017-11-03T15:49:34.790Z,6.30
2017-11-03T15:52:01.012Z,7.60
2017-11-03T15:54:27.316Z,8.03
2017-11-03T15:56:53.442Z,9.03
2017-11-03T15:59:20.586Z,6.37
2017-11-03T16:01:46.906Z,6.90
2017-11-03T16:04:13.126Z,7.50
2017-11-03T16:06:40.406Z,7.70
2017-11-03T16:09:06.844Z,6.43
2017-11-03T16:11:32.879Z,6.50
2017-11-03T16:13:58.988Z,8.10
2017-11-03T16:16:25.336Z,10.20
2017-11-03T16:18:51.428Z,12.60
2017-11-03T16:21:17.572Z,12.10
2017-11-03T16:23:43.721Z,6.33
2017-11-03T16:26:09.963Z,7.23
2017-11-03T16:28:36.097Z,9.03
2017-11-03T16:31:02.213Z,7.00
2017-11-03T16:33:29.179Z,6.30
2017-11-03T16:35:55.298Z,10.13
2017-11-03T16:38:21.524Z,8.93
2017-11-03T16:40:47.699Z,8.03
2017-11-03T16:43:14.044Z,8.33
2017-11-03T16:45:40.168Z,8.70
2017-11-03T16:48:06.539Z,9.00
2017-11-03T16:50:33.581Z,8.90
2017-11-03T16:53:00.293Z,7.83
2017-11-03T16:55:33.392Z,8.73
2017-11-03T16:57:59.812Z,8.87
2017-11-03T17:00:26.003Z,6.73
2017-11-03T17:02:52.103Z,8.77
2017-11-03T17:05:18.176Z,9.90
2017-11-03T17:07:44.625Z,8.83
2017-11-03T17:10:11.042Z,10.60
2017-11-03T17:12:37.616Z,9.80
2017-11-03T17:15:03.841Z,11.53
2017-11-03T17:17:30.579Z,10.10
2017-11-03T17:19:56.837Z,13.27
2017-11-03T17:22:23.016Z,11.30
2017-11-03T17:24:49.151Z,10.60
2017-11-03T17:27:15.239Z,10.40
2017-11-03T17:29:41.538Z,11.77
2017-11-03T17:32:07.751Z,10.93
2017-11-03T17:34:33.947Z,13.63
2017-11-03T17:37:00.112Z,11.37
2017-11-03T17:39:26.189Z,16.87
2017-11-03T17:41:52.291Z,12.40
2017-11-03T17:44:18.573Z,16.17
2017-11-03T17:46:44.716Z,12.13
2017-11-03T17:49:11.973Z,11.93
2017-11-03T17:51:38.214Z,11.73
2017-11-03T17:54:04.533Z,12.63
2017-11-03T17:56:30.634Z,15.00
2017-11-03T17:58:56.825Z,13.97
2017-11-03T18:01:22.894Z,10.13
2017-11-03T18:03:49.116Z,13.17
2017-11-03T18:06:16.446Z,13.97
2017-11-03T18:08:42.632Z,14.77
2017-11-03T18:11:08.760Z,17.23
2017-11-03T18:13:34.989Z,14.13
2017-11-03T18:16:01.239Z,12.17
2017-11-03T18:18:27.492Z,13.20
2017-11-03T18:20:53.649Z,13.10
2017-11-03T18:23:19.762Z,13.20
2017-11-03T18:25:45.885Z,15.40
2017-11-03T18:28:12.154Z,15.50
2017-11-03T18:30:45.859Z,13.60
2017-11-03T18:33:11.959Z,10.47
2017-11-03T18:35:38.517Z,12.10
2017-11-03T18:38:04.741Z,12.53
2017-11-03T18:40:31.324Z,11.50
2017-11-03T18:42:57.612Z,10.47
2017-11-03T18:45:23.739Z,10.90
2017-11-03T18:47:50.130Z,11.40
2017-11-03T18:50:16.888Z,17.10
2017-11-03T18:52:43.595Z,13.07
2017-11-03T18:55:09.883Z,12.23
2017-11-03T18:57:36.496Z,11.00
2017-11-03T19:00:02.713Z,10.90
2017-11-03T19:02:28.999Z,11.00
2017-11-03T19:04:55.410Z,12.50
2017-11-03T19:07:21.904Z,13.80
2017-11-03T19:09:47.985Z,12.70
2017-11-03T19:12:14.065Z,16.47
2017-11-03T19:14:40.140Z,17.73
2017-11-03T19:22:48.211Z,13.93
2017-11-03T19:28:57.470Z,10.10
2017-11-03T19:34:27.981Z,10.50
2017-11-03T19:36:54.312Z,14.30
2017-11-03T19:43:04.472Z,11.43
2017-11-03T19:45:30.736Z,16.40
2017-11-03T19:47:56.869Z,12.93
2017-11-03T19:50:22.946Z,10.97
2017-11-03T19:52:49.171Z,12.27
2017-11-03T19:55:15.358Z,11.43
2017-11-03T19:57:41.608Z,14.47
2017-11-03T20:00:07.891Z,10.70
2017-11-03T20:02:34.156Z,11.03
2017-11-03T20:05:00.520Z,11.27
2017-11-03T20:07:26.665Z,10.10
2017-11-03T20:09:52.676Z,13.97
2017-11-03T20:12:19.007Z,11.47
2017-11-03T20:14:45.148Z,10.63
2017-11-03T20:17:11.493Z,13.37
2017-11-03T20:19:37.708Z,13.47
2017-11-03T20:22:03.772Z,11.03
2017-11-03T20:24:29.899Z,12.90
2017-11-03T20:26:56.002Z,11.60
2017-11-03T20:29:22.396Z,12.03
2017-11-03T20:31:48.647Z,10.57
2017-11-03T20:34:14.715Z,11.90
2017-11-03T20:36:40.998Z,10.63
2017-11-03T20:39:07.160Z,10.07
2017-11-03T20:41:33.298Z,11.93
2017-11-03T20:43:59.530Z,10.43
2017-11-03T20:46:25.772Z,8.23
2017-11-03T20:48:51.871Z,12.53
2017-11-03T20:51:18.061Z,9.73
2017-11-03T20:53:44.336Z,9.63
2017-11-03T20:56:10.339Z,10.37
2017-11-03T20:58:36.897Z,10.07
2017-11-03T21:01:02.965Z,10.97
2017-11-03T21:03:29.208Z,9.30
2017-11-03T21:05:55.421Z,10.07
2017-11-03T21:08:21.651Z,9.87
2017-11-03T21:10:47.995Z,7.97
2017-11-03T21:13:14.500Z,8.70
2017-11-03T21:15:40.717Z,11.20
2017-11-03T21:18:06.844Z,10.90
2017-11-03T21:20:33.581Z,10.20
2017-11-03T21:28:34.481Z,9.17
2017-11-03T21:31:10.786Z,11.10
2017-11-03T21:33:53.119Z,14.13
2017-11-03T21:39:29.985Z,11.80
2017-11-03T22:06:12.078Z,11.70
2017-11-03T22:08:44.012Z,10.80
2017-11-03T22:11:13.037Z,10.17
2017-11-03T22:13:42.867Z,13.70
2017-11-03T22:16:09.328Z,16.13
2017-11-03T22:18:47.234Z,10.03
2017-11-03T22:21:13.388Z,11.03
2017-11-03T22:23:39.826Z,10.40
2017-11-03T22:26:05.995Z,13.47
2017-11-03T22:28:32.021Z,14.47
2017-11-03T22:30:58.123Z,9.97
2017-11-03T22:33:24.215Z,10.37
2017-11-03T22:35:50.554Z,10.77
2017-11-03T22:38:16.627Z,8.87
2017-11-03T22:40:42.815Z,7.67
2017-11-03T22:43:09.081Z,9.23
2017-11-03T22:45:35.164Z,9.10
2017-11-03T22:48:01.216Z,10.00
2017-11-03T22:50:27.267Z,9.30
2017-11-03T22:52:53.343Z,25.77
2017-11-03T22:55:19.545Z,16.30
2017-11-03T22:57:45.715Z,15.90
2017-11-03T23:00:11.768Z,13.77
2017-11-03T23:02:37.973Z,10.67
2017-11-03T23:05:04.232Z,11.40
2017-11-03T23:07:30.390Z,9.80
2017-11-03T23:09:56.535Z,11.40
2017-11-03T23:12:22.795Z,13.83
2017-11-03T23:14:48.894Z,8.47
2017-11-03T23:17:14.934Z,8.73
2017-11-03T23:19:41.166Z,12.73
2017-11-03T23:22:07.209Z,9.40
2017-11-03T23:24:33.279Z,12.77
2017-11-03T23:26:59.549Z,8.40
2017-11-03T23:29:25.570Z,9.50
2017-11-03T23:31:51.813Z,11.33
2017-11-03T23:34:18.015Z,7.40
2017-11-03T23:36:44.149Z,12.60
2017-11-03T23:39:10.212Z,11.67
2017-11-03T23:41:36.349Z,8.47
2017-11-03T23:44:02.399Z,8.50
2017-11-03T23:46:28.533Z,9.60
2017-11-03T23:48:54.761Z,9.57
2017-11-03T23:51:20.850Z,7.53
2017-11-03T23:53:46.894Z,7.57
2017-11-03T23:56:12.990Z,8.80
2017-11-03T23:58:39.163Z,7.77
